createdAt,value
2023-01-13T00:00:36.742Z,10.5
2023-01-13T00:02:38.227Z,10.56
2023-01-13T00:04:39.214Z,10.46
2023-01-13T00:06:40.801Z,10.54
2023-01-13T00:08:42.041Z,10.47
2023-01-13T00:10:43.794Z,10.53
2023-01-13T00:12:44.823Z,10.51
2023-01-13T00:14:46.328Z,10.53
2023-01-13T00:16:47.839Z,10.51
2023-01-13T00:18:48.816Z,10.53
2023-01-13T00:20:50.309Z,10.49
2023-01-13T00:22:52.055Z,10.52
2023-01-13T00:24:53.118Z,10.43
2023-01-13T00:26:54.428Z,10.51
2023-01-13T00:28:56.214Z,10.56
2023-01-13T00:30:57.332Z,10.52
2023-01-13T00:32:59.029Z,10.54
2023-01-13T00:35:00.287Z,10.52
2023-01-13T00:37:01.384Z,10.54
2023-01-13T00:39:03.050Z,10.56
2023-01-13T00:41:04.243Z,10.52
2023-01-13T00:43:05.168Z,10.53
2023-01-13T00:45:06.411Z,10.51
2023-01-13T00:47:08.148Z,10.53
2023-01-13T00:49:09.508Z,10.51
2023-01-13T00:53:12.490Z,10.52
2023-01-13T00:55:13.509Z,10.47
2023-01-13T00:57:14.924Z,10.41
2023-01-13T00:59:16.585Z,10.47
2023-01-13T01:01:18.264Z,10.5
2023-01-13T01:03:20.059Z,10.51
2023-01-13T01:05:21.546Z,10.48
2023-01-13T01:07:23.499Z,10.49
2023-01-13T01:09:25.106Z,10.43
2023-01-13T01:11:26.282Z,10.4
2023-01-13T01:13:28.192Z,10.45
2023-01-13T01:15:29.586Z,10.38
2023-01-13T01:17:30.838Z,10.33
2023-01-13T01:19:32.221Z,10.26
2023-01-13T01:21:33.888Z,10.25
2023-01-13T01:23:34.858Z,10.37
2023-01-13T01:25:36.559Z,10.37
2023-01-13T01:27:38.402Z,10.39
2023-01-13T01:29:39.672Z,10.4
2023-01-13T01:31:41.092Z,10.28
2023-01-13T01:33:42.198Z,10.31
2023-01-13T01:35:43.447Z,10.39
2023-01-13T01:37:44.444Z,10.45
2023-01-13T01:39:45.536Z,10.33
2023-01-13T01:41:47.235Z,10.37
2023-01-13T01:43:48.317Z,10.26
2023-01-13T01:45:49.726Z,10.15
2023-01-13T01:47:50.713Z,10.08
2023-01-13T01:49:51.846Z,9.93
2023-01-13T01:51:53.514Z,9.92
2023-01-13T01:53:54.850Z,9.81
2023-01-13T01:55:56.292Z,9.89
2023-01-13T01:57:57.821Z,9.96
2023-01-13T01:59:59.261Z,9.94
2023-01-13T02:02:00.764Z,9.95
2023-01-13T02:04:02.116Z,9.93
2023-01-13T02:06:03.447Z,9.97
2023-01-13T02:08:05.036Z,10.05
2023-01-13T02:10:06.543Z,10.01
2023-01-13T02:12:07.756Z,10.05
2023-01-13T02:14:09.162Z,10.07
2023-01-13T02:16:10.744Z,10.02
2023-01-13T02:18:11.964Z,10.01
2023-01-13T02:20:13.001Z,10.07
2023-01-13T02:22:14.707Z,10.02
2023-01-13T02:24:16.240Z,9.89
2023-01-13T02:26:17.191Z,9.81
2023-01-13T02:28:19.103Z,9.79
2023-01-13T02:30:20.970Z,9.79
2023-01-13T02:32:22.179Z,9.76
2023-01-13T02:34:23.213Z,9.71
2023-01-13T02:36:24.736Z,9.63
2023-01-13T02:38:25.756Z,9.61
2023-01-13T02:40:27.208Z,9.6
2023-01-13T02:42:28.493Z,9.53
2023-01-13T02:44:29.756Z,9.51
2023-01-13T02:46:30.962Z,9.5
2023-01-13T02:48:32.269Z,9.6
2023-01-13T02:50:33.903Z,9.56
2023-01-13T02:52:35.603Z,9.63
2023-01-13T02:54:36.601Z,9.6
2023-01-13T02:56:38.260Z,9.56
2023-01-13T02:58:39.582Z,9.71
2023-01-13T03:00:40.571Z,9.73
2023-01-13T03:02:41.743Z,9.76
2023-01-13T03:04:43.148Z,9.75
2023-01-13T03:06:44.562Z,9.77
2023-01-13T03:08:46.140Z,9.91
2023-01-13T03:10:47.898Z,9.96
2023-01-13T03:12:49.677Z,9.87
2023-01-13T03:14:51.498Z,9.96
2023-01-13T03:16:52.962Z,10.01
2023-01-13T03:18:54.704Z,10.01
2023-01-13T03:20:55.858Z,10.07
2023-01-13T03:22:57.516Z,10.08
2023-01-13T03:24:58.460Z,10.05
2023-01-13T03:26:59.697Z,10.06
2023-01-13T03:29:00.949Z,10.07
2023-01-13T03:31:02.103Z,10.04
2023-01-13T03:33:03.193Z,9.99
2023-01-13T03:35:04.720Z,10.01
2023-01-13T03:37:06.065Z,9.94
2023-01-13T03:39:07.169Z,9.9
2023-01-13T03:41:08.756Z,9.85
2023-01-13T03:43:10.612Z,10
2023-01-13T03:45:11.659Z,9.89
2023-01-13T03:49:14.551Z,9.91
2023-01-13T03:51:15.619Z,9.9
2023-01-13T03:53:17.014Z,9.87
2023-01-13T03:55:18.106Z,9.84
2023-01-13T03:57:19.328Z,9.86
2023-01-13T03:59:20.258Z,9.85
2023-01-13T04:01:21.638Z,9.86
2023-01-13T04:04:06.922Z,9.83
2023-01-13T04:06:07.866Z,9.95
2023-01-13T04:08:09.108Z,9.86
2023-01-13T04:10:10.628Z,9.76
2023-01-13T04:12:12.127Z,9.64
2023-01-13T04:14:13.745Z,9.58
2023-01-13T04:16:15.354Z,9.57
2023-01-13T04:18:16.994Z,9.47
2023-01-13T04:20:18.409Z,9.36
2023-01-13T04:22:19.575Z,9.36
2023-01-13T04:24:20.866Z,9.33
2023-01-13T04:26:22.384Z,9.34
2023-01-13T04:28:23.296Z,9.24
2023-01-13T04:30:25.267Z,9.15
2023-01-13T04:32:26.284Z,9.07
2023-01-13T04:34:28.508Z,9.11
2023-01-13T04:36:29.605Z,9.06
2023-01-13T04:38:31.112Z,9.11
2023-01-13T04:40:32.218Z,9.12
2023-01-13T04:42:33.732Z,9.08
2023-01-13T04:44:35.542Z,9.15
2023-01-13T04:46:36.783Z,9.2
2023-01-13T04:48:38.122Z,9.15
2023-01-13T04:50:39.219Z,9.18
2023-01-13T04:52:40.293Z,9.11
2023-01-13T04:54:41.737Z,9.06
2023-01-13T04:56:43.324Z,9.02
2023-01-13T04:58:45.092Z,9
2023-01-13T05:00:46.353Z,8.91
2023-01-13T05:02:47.939Z,8.88
2023-01-13T05:04:49.095Z,8.86
2023-01-13T05:06:50.206Z,8.82
2023-01-13T05:08:51.993Z,8.79
2023-01-13T05:10:52.975Z,8.74
2023-01-13T05:12:54.279Z,8.68
2023-01-13T05:14:55.901Z,8.63
2023-01-13T05:16:57.544Z,8.56
2023-01-13T05:18:59.269Z,8.56
2023-01-13T05:21:00.204Z,8.52
2023-01-13T05:23:01.986Z,8.49
2023-01-13T05:25:03.440Z,8.43
2023-01-13T05:27:05.054Z,8.38
2023-01-13T05:29:06.684Z,8.42
2023-01-13T05:31:07.797Z,8.4
2023-01-13T05:33:09.169Z,8.36
2023-01-13T05:35:10.655Z,8.35
2023-01-13T05:37:11.721Z,8.32
2023-01-13T05:39:13.033Z,8.32
2023-01-13T05:41:14.625Z,8.29
2023-01-13T05:43:16.385Z,8.28
2023-01-13T05:45:17.562Z,8.31
2023-01-13T05:47:18.586Z,8.29
2023-01-13T05:49:19.821Z,8.28
2023-01-13T05:51:29.255Z,8.32
2023-01-13T05:53:22.192Z,8.31
2023-01-13T05:55:23.198Z,8.35
2023-01-13T05:57:25.025Z,8.36
2023-01-13T05:59:26.279Z,8.32
2023-01-13T06:01:28.271Z,8.38
2023-01-13T06:03:29.528Z,8.39
2023-01-13T06:05:31.068Z,8.44
2023-01-13T06:07:32.536Z,8.5
2023-01-13T06:09:34.174Z,8.56
2023-01-13T06:11:35.953Z,8.57
2023-01-13T06:13:37.039Z,8.55
2023-01-13T06:15:38.956Z,8.56
2023-01-13T06:17:40.719Z,8.59
2023-01-13T06:19:42.205Z,8.76
2023-01-13T06:21:43.438Z,8.77
2023-01-13T06:23:45.036Z,8.8
2023-01-13T06:25:46.290Z,8.86
2023-01-13T06:27:47.338Z,8.92
2023-01-13T06:29:49.169Z,8.97
2023-01-13T06:31:50.428Z,8.95
2023-01-13T06:33:51.348Z,9.03
2023-01-13T06:36:01.569Z,9.02
2023-01-13T06:37:53.477Z,9.07
2023-01-13T06:39:54.942Z,9.11
2023-01-13T06:41:55.915Z,9.23
2023-01-13T06:43:57.199Z,9.26
2023-01-13T06:45:58.643Z,9.33
2023-01-13T06:48:00.066Z,9.31
2023-01-13T06:50:01.943Z,9.33
2023-01-13T06:52:03.194Z,9.31
2023-01-13T06:54:05.017Z,9.29
2023-01-13T06:56:06.748Z,9.29
2023-01-13T06:58:07.918Z,9.32
2023-01-13T07:00:08.968Z,9.28
2023-01-13T07:02:10.835Z,9.32
2023-01-13T07:04:12.600Z,9.46
2023-01-13T07:06:13.763Z,9.35
2023-01-13T07:08:15.655Z,9.5
2023-01-13T07:10:17.342Z,9.45
2023-01-13T07:12:18.848Z,9.4
2023-01-13T07:14:20.231Z,9.42
2023-01-13T07:16:22.174Z,9.45
2023-01-13T07:18:23.799Z,9.47
2023-01-13T07:20:25.050Z,9.54
2023-01-13T07:22:26.844Z,9.49
2023-01-13T07:24:28.503Z,9.53
2023-01-13T07:26:30.151Z,9.59
2023-01-13T07:28:32.081Z,9.56
2023-01-13T07:30:33.593Z,9.54
2023-01-13T07:32:35.356Z,9.51
2023-01-13T07:34:36.827Z,9.51
2023-01-13T07:36:38.105Z,9.32
2023-01-13T07:38:39.767Z,9.25
2023-01-13T07:40:41.057Z,9.23
2023-01-13T07:42:42.386Z,9.08
2023-01-13T07:44:43.705Z,9.01
2023-01-13T07:46:44.770Z,9.01
2023-01-13T07:48:46.541Z,8.81
2023-01-13T07:50:47.845Z,8.76
2023-01-13T07:52:49.246Z,8.71
2023-01-13T07:54:51.082Z,8.79
2023-01-13T07:56:52.161Z,8.69
2023-01-13T07:58:53.745Z,8.69
2023-01-13T08:00:55.083Z,8.6
2023-01-13T08:02:56.301Z,8.6
2023-01-13T08:04:57.725Z,8.53
2023-01-13T08:06:58.712Z,8.48
2023-01-13T08:09:00.296Z,8.47
2023-01-13T08:11:01.539Z,8.42
2023-01-13T08:13:02.607Z,8.42
2023-01-13T08:15:03.649Z,8.41
2023-01-13T08:17:05.367Z,8.38
2023-01-13T08:19:06.809Z,8.37
2023-01-13T08:21:08.119Z,8.35
2023-01-13T08:23:09.688Z,8.33
2023-01-13T08:25:11.367Z,8.35
2023-01-13T08:27:12.308Z,8.35
2023-01-13T08:29:14.965Z,8.33
2023-01-13T08:31:15.195Z,8.33
2023-01-13T08:33:17.113Z,8.3
2023-01-13T08:35:18.499Z,8.32
2023-01-13T08:37:19.614Z,8.3
2023-01-13T08:39:20.977Z,8.3
2023-01-13T08:41:22.745Z,8.35
2023-01-13T08:43:24.237Z,8.36
2023-01-13T08:45:26.049Z,8.47
2023-01-13T08:47:27.527Z,8.52
2023-01-13T08:49:28.851Z,8.51
2023-01-13T08:51:30.463Z,8.38
2023-01-13T08:53:31.465Z,8.36
2023-01-13T08:55:32.452Z,8.39
2023-01-13T08:57:33.956Z,8.28
2023-01-13T08:59:35.030Z,8.28
2023-01-13T09:01:37.038Z,8.2
2023-01-13T09:03:38.328Z,8.17
2023-01-13T09:05:39.364Z,8.05
2023-01-13T09:07:40.283Z,7.99
2023-01-13T09:09:41.521Z,7.92
2023-01-13T09:11:43.042Z,7.86
2023-01-13T09:13:44.335Z,7.85
2023-01-13T09:15:46.027Z,7.98
2023-01-13T09:17:47.794Z,8.14
2023-01-13T09:19:49.971Z,8.27
2023-01-13T09:21:50.975Z,8.44
2023-01-13T09:23:52.645Z,8.61
2023-01-13T09:25:53.586Z,8.63
2023-01-13T09:27:54.912Z,8.5
2023-01-13T09:29:55.958Z,8.47
2023-01-13T09:31:57.063Z,8.43
2023-01-13T09:33:58.257Z,8.4
2023-01-13T09:36:00.045Z,8.33
2023-01-13T09:38:01.573Z,8.33
2023-01-13T09:40:02.890Z,8.39
2023-01-13T09:42:03.816Z,8.33
2023-01-13T09:44:04.866Z,8.29
2023-01-13T09:46:06.141Z,8.32
2023-01-13T09:48:07.289Z,8.3
2023-01-13T09:50:08.594Z,8.25
2023-01-13T09:52:09.714Z,8.24
2023-01-13T09:54:11.297Z,8.27
2023-01-13T09:56:12.231Z,8.21
2023-01-13T09:58:13.970Z,8.21
2023-01-13T10:00:15.187Z,8.19
2023-01-13T10:02:16.513Z,8.17
2023-01-13T10:04:18.379Z,8.14
2023-01-13T10:06:20.216Z,8.17
2023-01-13T10:08:21.864Z,8.14
2023-01-13T10:10:23.564Z,8.19
2023-01-13T10:12:24.719Z,8.2
2023-01-13T10:14:26.461Z,8.18
2023-01-13T10:16:28.041Z,8.17
2023-01-13T10:18:28.965Z,8.27
2023-01-13T10:20:30.316Z,8.44
2023-01-13T10:22:31.639Z,8.4
2023-01-13T10:24:33.035Z,8.37
2023-01-13T10:26:34.790Z,8.4
2023-01-13T10:28:35.882Z,8.52
2023-01-13T10:30:36.918Z,8.74
2023-01-13T10:32:38.257Z,8.83
2023-01-13T10:34:40.110Z,8.69
2023-01-13T10:36:41.491Z,8.61
2023-01-13T10:38:43.358Z,8.55
2023-01-13T10:40:44.648Z,8.61
2023-01-13T10:42:45.826Z,8.64
2023-01-13T10:44:47.297Z,8.64
2023-01-13T10:46:48.855Z,8.5
2023-01-13T10:47:40.585Z,8.47
2023-01-13T10:49:42.059Z,8.4
2023-01-13T10:51:43.741Z,8.39
2023-01-13T10:53:45.000Z,8.41
2023-01-13T10:55:46.652Z,8.39
2023-01-13T10:57:48.209Z,8.49
2023-01-13T10:59:49.434Z,8.54
2023-01-13T11:01:53.118Z,8.48
2023-01-13T11:03:52.477Z,8.53
2023-01-13T11:05:54.005Z,8.54
2023-01-13T11:07:55.233Z,8.53
2023-01-13T11:09:56.988Z,8.59
2023-01-13T11:11:58.000Z,8.56
2023-01-13T11:13:59.229Z,8.57
2023-01-13T11:16:00.619Z,8.56
2023-01-13T11:18:01.608Z,8.55
2023-01-13T11:20:02.845Z,8.62
2023-01-13T11:22:04.418Z,8.59
2023-01-13T11:24:05.926Z,8.54
2023-01-13T11:26:06.926Z,8.53
2023-01-13T11:28:08.206Z,8.58
2023-01-13T11:32:11.273Z,8.64
2023-01-13T11:34:12.747Z,8.64
2023-01-13T11:36:13.997Z,8.66
2023-01-13T11:38:15.337Z,8.68
2023-01-13T11:40:16.674Z,8.69
2023-01-13T11:42:18.103Z,8.66
2023-01-13T11:44:19.731Z,8.68
2023-01-13T11:46:21.162Z,8.64
2023-01-13T11:48:22.192Z,8.64
2023-01-13T11:50:23.339Z,8.72
2023-01-13T11:52:24.693Z,8.76
2023-01-13T11:54:25.915Z,8.78
2023-01-13T11:56:27.163Z,8.8
2023-01-13T11:58:29.129Z,8.79
2023-01-13T12:00:30.250Z,8.82
2023-01-13T12:02:32.057Z,8.8
2023-01-13T12:04:33.527Z,8.85
2023-01-13T12:06:35.184Z,8.85
2023-01-13T12:08:37.018Z,8.86
2023-01-13T12:10:38.478Z,8.91
2023-01-13T12:12:39.935Z,8.88
2023-01-13T12:14:40.933Z,8.87
2023-01-13T12:16:42.125Z,8.87
2023-01-13T12:18:43.741Z,8.86
2023-01-13T12:20:44.759Z,8.86
2023-01-13T12:22:46.585Z,8.94
2023-01-13T12:24:47.755Z,9.23
2023-01-13T12:26:48.695Z,9.16
2023-01-13T12:28:49.995Z,9.23
2023-01-13T12:30:51.669Z,9.09
2023-01-13T12:32:52.670Z,9.22
2023-01-13T12:34:53.969Z,9.05
2023-01-13T12:36:54.863Z,8.92
2023-01-13T12:38:56.009Z,8.86
2023-01-13T12:40:57.430Z,8.83
2023-01-13T12:42:58.701Z,8.76
2023-01-13T12:45:00.463Z,8.81
2023-01-13T12:47:01.465Z,9.06
2023-01-13T12:49:02.954Z,9.23
2023-01-13T12:51:04.136Z,9.46
2023-01-13T12:53:05.647Z,9.49
2023-01-13T12:55:07.484Z,9.38
2023-01-13T12:57:08.587Z,9.25
2023-01-13T12:59:10.381Z,9.19
2023-01-13T13:01:11.917Z,9.24
2023-01-13T13:03:12.998Z,9.23
2023-01-13T13:05:14.530Z,9.3
2023-01-13T13:07:17.008Z,9.46
2023-01-13T13:09:18.483Z,9.57
2023-01-13T13:11:19.572Z,9.59
2023-01-13T13:13:20.489Z,9.55
2023-01-13T13:15:21.471Z,9.56
2023-01-13T13:17:22.996Z,9.54
2023-01-13T13:19:24.721Z,9.6
2023-01-13T13:21:26.107Z,9.65
2023-01-13T13:23:27.899Z,9.56
2023-01-13T13:25:29.880Z,9.62
2023-01-13T13:27:31.630Z,9.49
2023-01-13T13:29:32.641Z,9.52
2023-01-13T13:31:34.264Z,9.26
2023-01-13T13:33:35.361Z,9.17
2023-01-13T13:35:37.131Z,8.98
2023-01-13T13:37:38.118Z,8.98
2023-01-13T13:39:40.113Z,8.95
2023-01-13T13:41:40.987Z,8.9
2023-01-13T13:43:42.207Z,8.78
2023-01-13T13:45:43.788Z,8.63
2023-01-13T13:47:44.851Z,8.06
2023-01-13T13:49:46.724Z,7.81
2023-01-13T13:51:47.939Z,7.79
2023-01-13T13:55:59.502Z,7.77
2023-01-13T13:57:51.745Z,7.73
2023-01-13T13:59:53.085Z,7.68
2023-01-13T14:01:54.453Z,7.69
2023-01-13T14:03:55.892Z,7.72
2023-01-13T14:05:57.040Z,7.76
2023-01-13T14:07:59.056Z,7.97
2023-01-13T14:09:59.650Z,8.02
2023-01-13T14:12:01.007Z,7.94
2023-01-13T14:14:01.932Z,7.84
2023-01-13T14:16:03.516Z,8.01
2023-01-13T14:18:04.924Z,8.26
2023-01-13T14:20:06.175Z,8.24
2023-01-13T14:22:07.401Z,8.16
2023-01-13T14:24:08.512Z,8.28
2023-01-13T14:26:09.636Z,8.3
2023-01-13T14:28:10.625Z,8.16
2023-01-13T14:30:12.359Z,8.03
2023-01-13T14:32:14.117Z,7.94
2023-01-13T14:34:25.901Z,7.86
2023-01-13T14:36:17.039Z,7.9
2023-01-13T14:38:18.591Z,7.84
2023-01-13T14:40:19.559Z,7.82
2023-01-13T14:42:20.568Z,7.86
2023-01-13T14:44:22.525Z,7.86
2023-01-13T14:46:24.186Z,7.81
2023-01-13T14:48:25.909Z,7.78
2023-01-13T14:50:27.715Z,7.77
2023-01-13T14:52:28.170Z,7.73
2023-01-13T14:54:29.985Z,7.73
2023-01-13T14:56:31.343Z,7.69
2023-01-13T14:58:32.564Z,7.61
2023-01-13T15:00:33.955Z,7.54
2023-01-13T15:02:35.066Z,7.52
2023-01-13T15:04:37.324Z,7.63
2023-01-13T15:06:37.340Z,7.59
2023-01-13T15:08:38.412Z,7.54
2023-01-13T15:10:40.251Z,7.5
2023-01-13T15:12:41.925Z,7.53
2023-01-13T15:14:43.815Z,7.66
2023-01-13T15:16:45.692Z,7.63
2023-01-13T15:18:46.883Z,7.72
2023-01-13T15:20:48.099Z,7.76
2023-01-13T15:22:49.306Z,7.62
2023-01-13T15:24:51.072Z,7.45
2023-01-13T15:26:52.642Z,7.49
2023-01-13T15:28:54.466Z,7.37
2023-01-13T15:30:55.572Z,7.22
2023-01-13T15:32:57.177Z,7.08
2023-01-13T15:34:58.691Z,6.92
2023-01-13T15:37:00.287Z,6.91
2023-01-13T15:39:02.097Z,6.82
2023-01-13T15:41:03.888Z,6.85
2023-01-13T15:43:05.141Z,6.77
2023-01-13T15:45:06.446Z,6.58
2023-01-13T15:47:07.959Z,6.58
2023-01-13T15:49:08.970Z,6.5
2023-01-13T15:51:10.447Z,6.54
2023-01-13T15:53:12.817Z,6.53
2023-01-13T15:55:12.909Z,6.45
2023-01-13T15:57:14.689Z,6.52
2023-01-13T15:59:16.052Z,6.48
2023-01-13T16:01:17.508Z,6.45
2023-01-13T16:03:18.396Z,6.55
2023-01-13T16:05:19.745Z,6.5
2023-01-13T16:07:21.441Z,6.6
2023-01-13T16:09:23.063Z,6.6
2023-01-13T16:11:24.378Z,6.5
2023-01-13T16:13:25.491Z,6.45
2023-01-13T16:15:26.744Z,6.39
2023-01-13T16:19:29.790Z,6.49
2023-01-13T16:21:30.941Z,6.28
2023-01-13T16:23:32.071Z,6.3
2023-01-13T16:25:33.852Z,6.19
2023-01-13T16:27:35.190Z,6.32
2023-01-13T16:29:36.441Z,6.33
2023-01-13T16:31:38.068Z,6.4
2023-01-13T16:33:39.266Z,6.38
2023-01-13T16:35:43.813Z,6.32
2023-01-13T16:37:42.284Z,6.23
2023-01-13T16:39:43.644Z,6.24
2023-01-13T16:41:45.421Z,6.37
2023-01-13T16:43:46.719Z,6.32
2023-01-13T16:45:48.216Z,6.32
2023-01-13T16:47:49.644Z,6.29
2023-01-13T16:49:50.687Z,6.28
2023-01-13T16:51:52.560Z,6.32
2023-01-13T16:53:53.859Z,6.45
2023-01-13T16:55:55.123Z,6.49
2023-01-13T16:57:56.784Z,6.48
2023-01-13T16:59:58.260Z,6.72
2023-01-13T17:02:00.080Z,6.71
2023-01-13T17:04:01.436Z,6.84
2023-01-13T17:06:02.654Z,6.96
2023-01-13T17:08:04.148Z,6.86
2023-01-13T17:10:05.974Z,6.87
2023-01-13T17:12:07.262Z,6.84
2023-01-13T17:14:18.126Z,6.84
2023-01-13T17:16:09.713Z,6.89
2023-01-13T17:18:11.216Z,6.94
2023-01-13T17:20:12.262Z,6.88
2023-01-13T17:22:13.454Z,6.87
2023-01-13T17:24:15.208Z,6.93
2023-01-13T17:26:16.511Z,6.92
2023-01-13T17:28:17.918Z,7
2023-01-13T17:30:19.079Z,6.94
2023-01-13T17:32:20.660Z,6.97
2023-01-13T17:35:06.383Z,7.06
2023-01-13T17:37:07.544Z,6.99
2023-01-13T17:39:08.699Z,7.01
2023-01-13T17:41:09.981Z,6.99
2023-01-13T17:43:11.435Z,6.97
2023-01-13T17:45:12.943Z,6.92
2023-01-13T17:47:14.486Z,6.84
2023-01-13T17:49:15.593Z,6.92
2023-01-13T17:51:16.681Z,7.05
2023-01-13T17:53:18.274Z,6.98
2023-01-13T17:55:20.208Z,6.94
2023-01-13T17:57:21.782Z,7.05
2023-01-13T17:59:23.403Z,7.04
2023-01-13T18:01:24.856Z,7.14
2023-01-13T18:03:26.175Z,7.21
2023-01-13T18:05:27.657Z,7.18
2023-01-13T18:07:28.785Z,7.13
2023-01-13T18:09:30.633Z,7.21
2023-01-13T18:11:31.794Z,7.11
2023-01-13T18:13:33.410Z,7.19
2023-01-13T18:15:35.005Z,7.14
2023-01-13T18:17:36.141Z,7.24
2023-01-13T18:19:37.828Z,7.13
2023-01-13T18:21:39.492Z,7.16
2023-01-13T18:23:40.922Z,7.23
2023-01-13T18:25:42.085Z,7.21
2023-01-13T18:27:43.834Z,7.23
2023-01-13T18:29:45.358Z,7.22
2023-01-13T18:31:46.670Z,7.22
2023-01-13T18:33:47.865Z,7.07
2023-01-13T18:37:51.089Z,7.03
2023-01-13T18:39:52.592Z,7.07
2023-01-13T18:41:54.495Z,7.11
2023-01-13T18:43:55.535Z,7.06
2023-01-13T18:45:57.391Z,7.13
2023-01-13T18:47:58.411Z,7.03
2023-01-13T18:49:59.462Z,7.04
2023-01-13T18:52:00.840Z,7.06
2023-01-13T18:54:02.768Z,7.03
2023-01-13T18:56:03.812Z,7.04
2023-01-13T18:58:05.284Z,6.96
2023-01-13T19:00:06.608Z,7.03
2023-01-13T19:02:08.184Z,7.07
2023-01-13T19:04:09.616Z,6.98
2023-01-13T19:06:10.752Z,6.89
2023-01-13T19:08:12.414Z,6.92
2023-01-13T19:10:13.883Z,6.88
2023-01-13T19:12:15.701Z,6.94
2023-01-13T19:14:16.695Z,6.89
2023-01-13T19:16:18.136Z,6.94
2023-01-13T19:18:19.698Z,6.95
2023-01-13T19:20:20.682Z,6.92
2023-01-13T19:22:22.143Z,6.91
2023-01-13T19:24:23.952Z,6.93
2023-01-13T19:26:25.550Z,6.85
2023-01-13T19:28:26.920Z,6.91
2023-01-13T19:30:27.906Z,6.94
2023-01-13T19:32:29.551Z,6.95
2023-01-13T19:34:31.330Z,6.99
2023-01-13T19:36:32.986Z,6.96
2023-01-13T19:38:34.858Z,7.02
2023-01-13T19:40:36.036Z,7.04
2023-01-13T19:42:37.260Z,6.97
2023-01-13T19:44:38.374Z,7.03
2023-01-13T19:46:39.971Z,7.03
2023-01-13T19:48:41.465Z,6.99
2023-01-13T19:50:43.083Z,6.93
2023-01-13T19:52:44.275Z,6.99
2023-01-13T19:54:45.563Z,6.91
2023-01-13T19:56:47.230Z,6.86
2023-01-13T19:58:48.769Z,6.85
2023-01-13T20:00:50.107Z,6.87
2023-01-13T20:02:52.149Z,6.83
2023-01-13T20:04:53.442Z,6.94
2023-01-13T20:06:55.330Z,6.92
2023-01-13T20:08:56.696Z,6.93
2023-01-13T20:10:58.332Z,6.93
2023-01-13T20:12:59.843Z,6.88
2023-01-13T20:15:01.420Z,6.87
2023-01-13T20:17:03.317Z,6.88
2023-01-13T20:19:05.042Z,6.9
2023-01-13T20:21:06.209Z,6.86
2023-01-13T20:23:07.723Z,6.87
2023-01-13T20:25:09.405Z,6.91
2023-01-13T20:27:10.758Z,6.91
2023-01-13T20:29:11.764Z,6.92
2023-01-13T20:31:13.658Z,6.94
2023-01-13T20:33:14.822Z,7
2023-01-13T20:35:16.379Z,7.1
2023-01-13T20:37:18.055Z,7.01
2023-01-13T20:39:19.059Z,7.05
2023-01-13T20:41:20.647Z,6.97
2023-01-13T20:43:21.858Z,7.04
2023-01-13T20:45:22.988Z,7
2023-01-13T20:47:24.105Z,6.91
2023-01-13T20:49:26.022Z,6.93
2023-01-13T20:51:27.902Z,6.91
2023-01-13T20:53:28.931Z,6.98
2023-01-13T20:55:30.612Z,6.95
2023-01-13T20:57:31.831Z,6.83
2023-01-13T20:59:33.753Z,6.74
2023-01-13T21:01:34.827Z,6.6
2023-01-13T21:03:35.871Z,6.55
2023-01-13T21:05:37.245Z,6.52
2023-01-13T21:07:39.042Z,6.53
2023-01-13T21:09:40.799Z,6.39
2023-01-13T21:11:41.813Z,6.33
2023-01-13T21:13:43.577Z,6.32
2023-01-13T21:15:45.524Z,6.27
2023-01-13T21:17:47.277Z,6.28
2023-01-13T21:19:49.029Z,6.16
2023-01-13T21:21:50.985Z,6.16
2023-01-13T21:23:52.606Z,6.16
2023-01-13T21:25:54.078Z,6.19
2023-01-13T21:27:55.973Z,6.3
2023-01-13T21:29:57.839Z,6.26
2023-01-13T21:31:58.858Z,6.25
2023-01-13T21:34:00.180Z,6.24
2023-01-13T21:36:01.985Z,6.26
2023-01-13T21:38:02.972Z,6.23
2023-01-13T21:40:04.097Z,6.27
2023-01-13T21:42:05.964Z,6.28
2023-01-13T21:44:07.198Z,6.2
2023-01-13T21:46:08.377Z,6.27
2023-01-13T21:48:10.052Z,6.21
2023-01-13T21:50:12.020Z,6.21
2023-01-13T21:52:13.408Z,6.13
2023-01-13T21:54:14.525Z,6.16
2023-01-13T21:56:15.568Z,6.12
2023-01-13T21:58:17.119Z,6.15
2023-01-13T22:00:18.504Z,6.19
2023-01-13T22:02:23.540Z,6.16
2023-01-13T22:04:21.248Z,6.22
2023-01-13T22:06:22.430Z,6.19
2023-01-13T22:08:23.962Z,6.23
2023-01-13T22:10:25.569Z,6.23
2023-01-13T22:12:27.122Z,6.22
2023-01-13T22:14:28.109Z,6.27
2023-01-13T22:16:29.399Z,6.25
2023-01-13T22:18:31.069Z,6.32
2023-01-13T22:20:32.813Z,6.34
2023-01-13T22:22:33.934Z,6.29
2023-01-13T22:24:35.838Z,6.34
2023-01-13T22:26:37.068Z,6.3
2023-01-13T22:28:38.339Z,6.35
2023-01-13T22:30:40.046Z,6.32
2023-01-13T22:32:41.082Z,6.37
2023-01-13T22:34:42.463Z,6.35
2023-01-13T22:36:44.226Z,6.38
2023-01-13T22:38:45.877Z,6.44
2023-01-13T22:40:47.657Z,6.42
2023-01-13T22:42:48.647Z,6.43
2023-01-13T22:44:50.239Z,6.42
2023-01-13T22:46:51.705Z,6.41
2023-01-13T22:48:52.994Z,6.43
2023-01-13T22:50:54.726Z,6.38
2023-01-13T22:52:55.794Z,6.39
2023-01-13T22:54:57.038Z,6.36
2023-01-13T22:58:59.834Z,6.34
2023-01-13T23:01:01.157Z,6.35
2023-01-13T23:03:02.421Z,6.34
2023-01-13T23:05:04.173Z,6.37
2023-01-13T23:07:05.996Z,6.35
2023-01-13T23:09:07.100Z,6.39
2023-01-13T23:11:08.870Z,6.37
2023-01-13T23:13:10.117Z,6.5
2023-01-13T23:15:11.203Z,6.5
2023-01-13T23:17:12.919Z,6.47
2023-01-13T23:19:14.203Z,6.53
2023-01-13T23:21:15.923Z,6.51
2023-01-13T23:23:17.675Z,6.49
2023-01-13T23:25:18.815Z,6.48
2023-01-13T23:27:20.162Z,6.52
2023-01-13T23:29:21.163Z,6.56
2023-01-13T23:31:22.241Z,6.52
2023-01-13T23:33:23.675Z,6.48
2023-01-13T23:35:24.973Z,6.53
2023-01-13T23:37:26.063Z,6.54
2023-01-13T23:39:27.087Z,6.58
2023-01-13T23:41:28.967Z,6.56
2023-01-13T23:43:30.232Z,6.57
2023-01-13T23:45:32.136Z,6.54
2023-01-13T23:47:33.699Z,6.55
2023-01-13T23:49:34.944Z,6.62
2023-01-13T23:51:36.296Z,6.59
2023-01-13T23:53:40.041Z,6.62
2023-01-13T23:55:39.506Z,6.55
2023-01-13T23:57:40.770Z,6.55
2023-01-13T23:59:42.333Z,6.57
